createdAt,value
2017-01-28T00:01:01.824Z,-4.63
2017-01-28T00:02:14.490Z,-4.63
2017-01-28T00:03:27.511Z,-4.61
2017-01-28T00:04:40.558Z,-4.65
2017-01-28T00:05:53.826Z,-4.62
2017-01-28T00:07:06.846Z,-4.58
2017-01-28T00:08:19.469Z,-4.62
2017-01-28T00:09:32.504Z,-4.71
2017-01-28T00:10:45.135Z,-4.67
2017-01-28T00:11:58.183Z,-4.67
2017-01-28T00:13:10.828Z,-4.69
2017-01-28T00:14:23.871Z,-4.69
2017-01-28T00:15:36.917Z,-4.69
2017-01-28T00:16:49.940Z,-4.65
2017-01-28T00:18:02.962Z,-4.69
2017-01-28T00:19:15.597Z,-4.69
2017-01-28T00:20:28.246Z,-4.73
2017-01-28T00:21:41.271Z,-4.74
2017-01-28T00:22:54.295Z,-4.79
2017-01-28T00:24:07.338Z,-4.74
2017-01-28T00:25:20.339Z,-4.83
2017-01-28T00:26:32.980Z,-4.84
2017-01-28T00:27:45.978Z,-4.76
2017-01-28T00:28:59.004Z,-4.76
2017-01-28T00:30:11.642Z,-4.9
2017-01-28T00:31:24.666Z,-4.74
2017-01-28T00:32:37.689Z,-4.77
2017-01-28T00:33:50.731Z,-4.79
2017-01-28T00:35:03.783Z,-4.84
2017-01-28T00:36:16.818Z,-4.87
2017-01-28T00:37:29.843Z,-4.71
2017-01-28T00:38:43.119Z,-4.76
2017-01-28T00:39:56.140Z,-4.76
2017-01-28T00:41:08.772Z,-4.71
2017-01-28T00:42:20.624Z,-4.88
2017-01-28T00:43:33.628Z,-4.8
2017-01-28T00:44:46.673Z,-4.79
2017-01-28T00:45:59.763Z,-4.81
2017-01-28T00:47:12.402Z,-4.74
2017-01-28T00:48:25.056Z,-4.65
2017-01-28T00:49:37.678Z,-4.71
2017-01-28T00:50:50.699Z,-4.73
2017-01-28T00:52:03.722Z,-4.7
2017-01-28T00:53:16.388Z,-4.63
2017-01-28T00:54:29.411Z,-4.65
2017-01-28T00:55:42.457Z,-4.76
2017-01-28T00:56:55.471Z,-4.74
2017-01-28T00:58:08.123Z,-4.65
2017-01-28T00:59:20.772Z,-4.67
2017-01-28T01:00:33.813Z,-4.76
2017-01-28T01:01:46.864Z,-4.74
2017-01-28T01:02:59.910Z,-4.74
2017-01-28T01:04:12.929Z,-4.71
2017-01-28T01:05:25.950Z,-4.76
2017-01-28T01:06:39.270Z,-4.7
2017-01-28T01:07:52.295Z,-4.76
2017-01-28T01:09:05.316Z,-4.88
2017-01-28T01:10:17.965Z,-4.76
2017-01-28T01:11:30.979Z,-4.74
2017-01-28T01:12:43.625Z,-4.71
2017-01-28T01:13:56.652Z,-4.87
2017-01-28T01:15:09.698Z,-4.88
2017-01-28T01:16:22.715Z,-4.88
2017-01-28T01:17:35.739Z,-4.77
2017-01-28T01:18:48.812Z,-4.83
2017-01-28T01:20:01.831Z,-4.77
2017-01-28T01:21:14.839Z,-4.74
2017-01-28T01:22:27.849Z,-4.76
2017-01-28T01:23:40.865Z,-4.83
2017-01-28T01:24:53.903Z,-4.8
2017-01-28T01:26:06.536Z,-4.9
2017-01-28T01:27:18.796Z,-4.77
2017-01-28T01:28:31.821Z,-4.8
2017-01-28T01:29:44.442Z,-4.84
2017-01-28T01:30:57.506Z,-4.8
2017-01-28T01:32:09.755Z,-4.87
2017-01-28T01:33:22.409Z,-4.87
2017-01-28T01:34:35.471Z,-4.8
2017-01-28T01:35:48.524Z,-4.83
2017-01-28T01:37:01.168Z,-4.84
2017-01-28T01:38:14.189Z,-4.92
2017-01-28T01:39:26.817Z,-4.94
2017-01-28T01:40:39.456Z,-4.97
2017-01-28T01:41:52.083Z,-4.92
2017-01-28T01:43:05.100Z,-4.92
2017-01-28T01:44:18.121Z,-4.97
2017-01-28T01:45:31.141Z,-4.87
2017-01-28T01:46:44.176Z,-4.9
2017-01-28T01:47:57.208Z,-4.98
2017-01-28T01:49:10.228Z,-4.98
2017-01-28T01:50:22.478Z,-4.91
2017-01-28T01:51:35.147Z,-4.95
2017-01-28T01:52:48.159Z,-4.95
2017-01-28T01:54:01.209Z,-4.98
2017-01-28T01:55:14.205Z,-5.01
2017-01-28T01:56:26.852Z,-5
2017-01-28T01:57:39.845Z,-4.94
2017-01-28T01:58:52.468Z,-4.95
2017-01-28T02:00:05.463Z,-4.94
2017-01-28T02:01:18.109Z,-4.98
2017-01-28T02:02:31.148Z,-4.97
2017-01-28T02:03:44.151Z,-4.94
2017-01-28T02:04:57.165Z,-5.06
2017-01-28T02:06:10.193Z,-5.09
2017-01-28T02:07:22.840Z,-5.09
2017-01-28T02:08:35.861Z,-5.12
2017-01-28T02:09:48.107Z,-5.01
2017-01-28T02:11:01.153Z,-5.08
2017-01-28T02:12:14.169Z,-5.02
2017-01-28T02:13:27.212Z,-5.09
2017-01-28T02:14:40.243Z,-5.09
2017-01-28T02:15:53.294Z,-5.01
2017-01-28T02:17:06.341Z,-5.06
2017-01-28T02:18:19.383Z,-5.02
2017-01-28T02:19:32.406Z,-5.08
2017-01-28T02:20:45.445Z,-5.09
2017-01-28T02:21:58.091Z,-5.02
2017-01-28T02:23:10.341Z,-5.09
2017-01-28T02:24:23.001Z,-5.02
2017-01-28T02:25:36.005Z,-5.05
2017-01-28T02:26:49.026Z,-5.06
2017-01-28T02:28:01.676Z,-5.08
2017-01-28T02:29:14.341Z,-5.06
2017-01-28T02:30:27.363Z,-5
2017-01-28T02:31:40.387Z,-5.06
2017-01-28T02:32:52.639Z,-5.16
2017-01-28T02:34:05.676Z,-5.02
2017-01-28T02:35:18.704Z,-5.06
2017-01-28T02:36:31.723Z,-5.09
2017-01-28T02:37:44.740Z,-5.12
2017-01-28T02:38:57.764Z,-5
2017-01-28T02:40:10.384Z,-5.12
2017-01-28T02:41:23.031Z,-5.13
2017-01-28T02:42:36.102Z,-5.02
2017-01-28T02:43:48.345Z,-5.12
2017-01-28T02:45:01.365Z,-5.17
2017-01-28T02:46:14.363Z,-5.1
2017-01-28T02:47:27.388Z,-5.1
2017-01-28T02:48:40.403Z,-5.13
2017-01-28T02:49:53.404Z,-5.02
2017-01-28T02:51:06.449Z,-5.09
2017-01-28T02:52:19.116Z,-5.12
2017-01-28T02:53:32.145Z,-5.08
2017-01-28T02:54:45.183Z,-5.19
2017-01-28T02:55:58.208Z,-5.17
2017-01-28T02:57:11.230Z,-5.06
2017-01-28T02:58:24.252Z,-5
2017-01-28T02:59:37.267Z,-5.09
2017-01-28T03:00:50.291Z,-5.09
2017-01-28T03:02:03.305Z,-5.16
2017-01-28T03:03:16.359Z,-5.08
2017-01-28T03:04:29.377Z,-5.1
2017-01-28T03:05:42.377Z,-5.09
2017-01-28T03:06:55.470Z,-5.06
2017-01-28T03:08:08.504Z,-5.12
2017-01-28T03:09:20.791Z,-5.05
2017-01-28T03:10:33.816Z,-5
2017-01-28T03:11:47.121Z,-5.09
2017-01-28T03:13:00.125Z,-4.98
2017-01-28T03:14:13.163Z,-5.08
2017-01-28T03:15:25.789Z,-5.06
2017-01-28T03:16:38.834Z,-5.06
2017-01-28T03:17:51.859Z,-5.08
2017-01-28T03:19:04.876Z,-5.09
2017-01-28T03:20:17.503Z,-5.06
2017-01-28T03:21:30.517Z,-5.02
2017-01-28T03:22:43.766Z,-5.12
2017-01-28T03:23:56.814Z,-5.06
2017-01-28T03:25:09.834Z,-5.02
2017-01-28T03:26:22.459Z,-5.05
2017-01-28T03:27:35.504Z,-5.06
2017-01-28T03:28:47.768Z,-5.16
2017-01-28T03:30:00.416Z,-5.06
2017-01-28T03:31:13.036Z,-5.12
2017-01-28T03:32:25.686Z,-5.13
2017-01-28T03:33:38.706Z,-5.12
2017-01-28T03:34:51.699Z,-5.05
2017-01-28T03:36:04.725Z,-5.16
2017-01-28T03:37:17.766Z,-5.27
2017-01-28T03:38:30.791Z,-5.13
2017-01-28T03:39:43.832Z,-5.25
2017-01-28T03:40:56.478Z,-5.17
2017-01-28T03:42:09.502Z,-5.17
2017-01-28T03:43:22.145Z,-5.23
2017-01-28T03:44:35.419Z,-5.21
2017-01-28T03:45:48.438Z,-5.2
2017-01-28T03:47:01.482Z,-5.19
2017-01-28T03:48:14.108Z,-5.27
2017-01-28T03:49:26.754Z,-5.28
2017-01-28T03:50:39.771Z,-5.31
2017-01-28T03:51:52.765Z,-5.28
2017-01-28T03:53:05.790Z,-5.31
2017-01-28T03:54:18.433Z,-5.31
2017-01-28T03:55:31.504Z,-5.31
2017-01-28T03:56:44.524Z,-5.35
2017-01-28T03:57:57.125Z,-5.31
2017-01-28T03:59:10.174Z,-5.32
2017-01-28T04:00:23.213Z,-5.19
2017-01-28T04:01:35.860Z,-5.28
2017-01-28T04:02:48.499Z,-5.3
2017-01-28T04:04:01.527Z,-5.19
2017-01-28T04:05:13.774Z,-5.16
2017-01-28T04:06:26.792Z,-5.27
2017-01-28T04:07:39.444Z,-5.19
2017-01-28T04:08:52.076Z,-5.21
2017-01-28T04:10:05.107Z,-5.27
2017-01-28T04:11:18.133Z,-5.3
2017-01-28T04:12:31.175Z,-5.17
2017-01-28T04:13:44.191Z,-5.2
2017-01-28T04:14:57.209Z,-5.16
2017-01-28T04:16:10.228Z,-5.2
2017-01-28T04:17:22.856Z,-5.21
2017-01-28T04:18:35.854Z,-5.19
2017-01-28T04:19:48.909Z,-5.21
2017-01-28T04:21:01.973Z,-5.2
2017-01-28T04:22:14.255Z,-5.16
2017-01-28T04:23:27.260Z,-5.25
2017-01-28T04:24:40.289Z,-5.19
2017-01-28T04:25:52.950Z,-5.19
2017-01-28T04:27:05.602Z,-5.27
2017-01-28T04:28:18.264Z,-5.23
2017-01-28T04:29:31.293Z,-5.2
2017-01-28T04:30:44.326Z,-5.13
2017-01-28T04:31:56.990Z,-5.25
2017-01-28T04:33:10.029Z,-5.19
2017-01-28T04:34:22.671Z,-5.17
2017-01-28T04:35:35.671Z,-5.2
2017-01-28T04:36:48.313Z,-5.2
2017-01-28T04:38:01.365Z,-5.2
2017-01-28T04:39:14.022Z,-5.3
2017-01-28T04:40:27.057Z,-5.23
2017-01-28T04:41:40.115Z,-5.19
2017-01-28T04:42:53.144Z,-5.2
2017-01-28T04:44:06.159Z,-5.16
2017-01-28T04:45:19.214Z,-5.2
2017-01-28T04:46:32.233Z,-5.2
2017-01-28T04:47:45.256Z,-5.21
2017-01-28T04:48:58.268Z,-5.16
2017-01-28T04:50:11.298Z,-5.21
2017-01-28T04:51:23.574Z,-5.13
2017-01-28T04:52:36.588Z,-5.27
2017-01-28T04:53:49.605Z,-5.21
2017-01-28T04:55:02.248Z,-5.28
2017-01-28T04:56:15.251Z,-5.16
2017-01-28T04:57:28.269Z,-5.28
2017-01-28T04:58:40.918Z,-5.19
2017-01-28T04:59:53.964Z,-5.28
2017-01-28T05:01:06.889Z,-5.2
2017-01-28T05:02:19.153Z,-5.3
2017-01-28T05:03:32.200Z,-5.2
2017-01-28T05:04:45.247Z,-5.25
2017-01-28T05:05:57.907Z,-5.17
2017-01-28T05:07:10.914Z,-5.32
2017-01-28T05:08:23.558Z,-5.31
2017-01-28T05:09:36.231Z,-5.25
2017-01-28T05:10:49.291Z,-5.31
2017-01-28T05:12:02.320Z,-5.2
2017-01-28T05:13:15.366Z,-5.32
2017-01-28T05:14:28.387Z,-5.28
2017-01-28T05:15:41.385Z,-5.3
2017-01-28T05:16:53.630Z,-5.3
2017-01-28T05:18:06.656Z,-5.35
2017-01-28T05:19:18.912Z,-5.3
2017-01-28T05:20:31.921Z,-5.28
2017-01-28T05:21:44.985Z,-5.19
2017-01-28T05:22:57.635Z,-5.31
2017-01-28T05:24:10.638Z,-5.28
2017-01-28T05:25:23.677Z,-5.34
2017-01-28T05:26:36.713Z,-5.19
2017-01-28T05:27:49.723Z,-5.23
2017-01-28T05:29:02.983Z,-5.19
2017-01-28T05:30:16.009Z,-5.21
2017-01-28T05:31:29.050Z,-5.21
2017-01-28T05:32:41.700Z,-5.19
2017-01-28T05:33:54.700Z,-5.27
2017-01-28T05:35:07.717Z,-5.13
2017-01-28T05:36:20.363Z,-5.32
2017-01-28T05:37:33.363Z,-5.3
2017-01-28T05:38:46.404Z,-5.23
2017-01-28T05:39:59.027Z,-5.27
2017-01-28T05:41:11.689Z,-5.27
2017-01-28T05:42:24.720Z,-5.23
2017-01-28T05:43:37.742Z,-5.25
2017-01-28T05:44:50.790Z,-5.32
2017-01-28T05:46:03.811Z,-5.27
2017-01-28T05:47:16.451Z,-5.28
2017-01-28T05:48:29.447Z,-5.3
2017-01-28T05:49:42.471Z,-5.31
2017-01-28T05:50:55.488Z,-5.25
2017-01-28T05:52:08.534Z,-5.37
2017-01-28T05:53:21.533Z,-5.31
2017-01-28T05:54:34.581Z,-5.23
2017-01-28T05:55:47.597Z,-5.25
2017-01-28T05:57:00.218Z,-5.3
2017-01-28T05:58:13.265Z,-5.25
2017-01-28T05:59:26.313Z,-5.32
2017-01-28T06:00:39.351Z,-5.3
2017-01-28T06:01:52.408Z,-5.3
2017-01-28T06:03:05.449Z,-5.23
2017-01-28T06:04:18.097Z,-5.25
2017-01-28T06:05:31.141Z,-5.28
2017-01-28T06:06:44.038Z,-5.38
2017-01-28T06:07:57.082Z,-5.43
2017-01-28T06:09:10.111Z,-5.3
2017-01-28T06:10:23.184Z,-5.39
2017-01-28T06:11:36.193Z,-5.34
2017-01-28T06:12:48.814Z,-5.38
2017-01-28T06:14:01.435Z,-5.39
2017-01-28T06:15:14.065Z,-5.35
2017-01-28T06:16:27.121Z,-5.37
2017-01-28T06:17:40.131Z,-5.37
2017-01-28T06:18:53.175Z,-5.38
2017-01-28T06:20:06.207Z,-5.27
2017-01-28T06:21:18.463Z,-5.38
2017-01-28T06:22:31.481Z,-5.37
2017-01-28T06:23:44.145Z,-5.38
2017-01-28T06:24:57.179Z,-5.45
2017-01-28T06:26:10.217Z,-5.35
2017-01-28T06:27:22.843Z,-5.45
2017-01-28T06:28:35.878Z,-5.49
2017-01-28T06:29:48.909Z,-5.46
2017-01-28T06:31:01.931Z,-5.5
2017-01-28T06:32:14.953Z,-5.39
2017-01-28T06:33:28.242Z,-5.5
2017-01-28T06:34:40.870Z,-5.46
2017-01-28T06:35:53.886Z,-5.49
2017-01-28T06:37:06.927Z,-5.49
2017-01-28T06:38:19.931Z,-5.46
2017-01-28T06:39:33.019Z,-5.45
2017-01-28T06:40:46.023Z,-5.59
2017-01-28T06:41:59.062Z,-5.58
2017-01-28T06:43:12.089Z,-5.56
2017-01-28T06:44:25.081Z,-5.52
2017-01-28T06:45:38.120Z,-5.56
2017-01-28T06:46:51.153Z,-5.5
2017-01-28T06:48:04.173Z,-5.53
2017-01-28T06:49:17.191Z,-5.52
2017-01-28T06:50:30.216Z,-5.67
2017-01-28T06:51:43.232Z,-5.6
2017-01-28T06:52:55.470Z,-5.58
2017-01-28T06:54:08.498Z,-5.6
2017-01-28T06:55:21.516Z,-5.59
2017-01-28T06:56:34.545Z,-5.68
2017-01-28T06:57:47.580Z,-5.67
2017-01-28T06:59:00.608Z,-5.67
2017-01-28T07:00:13.631Z,-5.66
2017-01-28T07:01:26.667Z,-5.7
2017-01-28T07:02:39.688Z,-5.68
2017-01-28T07:03:52.695Z,-5.71
2017-01-28T07:05:04.956Z,-5.7
2017-01-28T07:06:18.236Z,-5.73
2017-01-28T07:07:31.257Z,-5.7
2017-01-28T07:08:44.275Z,-5.6
2017-01-28T07:09:57.302Z,-5.74
2017-01-28T07:11:09.195Z,-5.67
2017-01-28T07:12:22.211Z,-5.6
2017-01-28T07:13:35.213Z,-5.59
2017-01-28T07:14:48.258Z,-5.68
2017-01-28T07:16:01.275Z,-5.59
2017-01-28T07:17:13.899Z,-5.7
2017-01-28T07:18:26.919Z,-5.7
2017-01-28T07:19:39.986Z,-5.64
2017-01-28T07:20:53.008Z,-5.71
2017-01-28T07:22:06.028Z,-5.6
2017-01-28T07:23:18.924Z,-5.68
2017-01-28T07:24:31.924Z,-5.71
2017-01-28T07:25:44.965Z,-5.68
2017-01-28T07:26:57.616Z,-5.66
2017-01-28T07:28:10.282Z,-5.63
2017-01-28T07:29:22.960Z,-5.63
2017-01-28T07:30:35.978Z,-5.59
2017-01-28T07:31:49.026Z,-5.58
2017-01-28T07:33:02.067Z,-5.58
2017-01-28T07:34:13.937Z,-5.56
2017-01-28T07:35:26.559Z,-5.52
2017-01-28T07:36:39.579Z,-5.56
2017-01-28T07:37:52.603Z,-5.5
2017-01-28T07:39:05.625Z,-5.45
2017-01-28T07:40:18.647Z,-5.48
2017-01-28T07:41:31.717Z,-5.46
2017-01-28T07:42:44.761Z,-5.37
2017-01-28T07:43:57.421Z,-5.27
2017-01-28T07:45:10.453Z,-5.37
2017-01-28T07:46:23.492Z,-5.35
2017-01-28T07:47:36.120Z,-5.35
2017-01-28T07:48:49.143Z,-5.39
2017-01-28T07:50:02.409Z,-5.28
2017-01-28T07:51:15.034Z,-5.28
2017-01-28T07:52:27.672Z,-5.28
2017-01-28T07:53:40.695Z,-5.27
2017-01-28T07:54:53.723Z,-5.25
2017-01-28T07:56:06.355Z,-5.3
2017-01-28T07:57:18.980Z,-5.21
2017-01-28T07:58:32.007Z,-5.25
2017-01-28T07:59:45.095Z,-5.06
2017-01-28T08:00:58.428Z,-5.19
2017-01-28T08:02:11.444Z,-5.09
2017-01-28T08:03:24.089Z,-5.05
2017-01-28T08:04:37.087Z,-5.05
2017-01-28T08:05:50.112Z,-4.92
2017-01-28T08:07:03.151Z,-4.88
2017-01-28T08:08:15.789Z,-4.95
2017-01-28T08:09:28.793Z,-4.91
2017-01-28T08:10:41.817Z,-4.97
2017-01-28T08:11:54.852Z,-4.9
2017-01-28T08:13:07.108Z,-4.97
2017-01-28T08:14:20.143Z,-4.9
2017-01-28T08:15:33.178Z,-4.87
2017-01-28T08:16:46.224Z,-4.81
2017-01-28T08:17:58.863Z,-4.79
2017-01-28T08:19:11.884Z,-4.9
2017-01-28T08:20:24.905Z,-4.76
2017-01-28T08:21:37.931Z,-4.76
2017-01-28T08:22:51.200Z,-4.71
2017-01-28T08:24:04.247Z,-4.76
2017-01-28T08:25:17.288Z,-4.69
2017-01-28T08:26:30.310Z,-4.73
2017-01-28T08:27:43.332Z,-4.61
2017-01-28T08:28:55.952Z,-4.62
2017-01-28T08:30:08.600Z,-4.59
2017-01-28T08:31:20.896Z,-4.56
2017-01-28T08:32:33.918Z,-4.45
2017-01-28T08:33:46.937Z,-4.52
2017-01-28T08:34:59.585Z,-4.38
2017-01-28T08:36:12.601Z,-4.47
2017-01-28T08:37:25.622Z,-4.41
2017-01-28T08:38:38.623Z,-4.38
2017-01-28T08:39:51.918Z,-4.38
2017-01-28T08:41:04.936Z,-4.3
2017-01-28T08:42:17.932Z,-4.37
2017-01-28T08:43:30.933Z,-4.37
2017-01-28T08:44:43.976Z,-4.27
2017-01-28T08:45:57.022Z,-4.19
2017-01-28T08:47:09.681Z,-4.2
2017-01-28T08:48:22.710Z,-4.12
2017-01-28T08:49:35.755Z,-4.12
2017-01-28T08:50:48.771Z,-4.01
2017-01-28T08:52:01.775Z,-4.09
2017-01-28T08:53:14.040Z,-4.06
2017-01-28T08:54:26.669Z,-4.04
2017-01-28T08:55:39.713Z,-4.05
2017-01-28T08:56:52.732Z,-3.96
2017-01-28T08:58:05.752Z,-3.99
2017-01-28T08:59:18.016Z,-3.91
2017-01-28T09:00:31.022Z,-3.85
2017-01-28T09:01:44.048Z,-3.87
2017-01-28T09:02:56.336Z,-3.85
2017-01-28T09:04:09.360Z,-3.78
2017-01-28T09:05:22.035Z,-3.75
2017-01-28T09:06:35.098Z,-3.78
2017-01-28T09:07:48.098Z,-3.77
2017-01-28T09:09:01.120Z,-3.64
2017-01-28T09:10:13.734Z,-3.68
2017-01-28T09:11:26.385Z,-3.65
2017-01-28T09:12:39.408Z,-3.55
2017-01-28T09:13:52.428Z,-3.53
2017-01-28T09:15:05.112Z,-3.51
2017-01-28T09:16:17.367Z,-3.5
2017-01-28T09:17:30.385Z,-3.44
2017-01-28T09:18:43.411Z,-3.43
2017-01-28T09:19:56.104Z,-3.3
2017-01-28T09:21:08.735Z,-3.32
2017-01-28T09:22:21.376Z,-3.25
2017-01-28T09:23:34.387Z,-3.29
2017-01-28T09:24:47.419Z,-3.32
2017-01-28T09:26:00.464Z,-3.14
2017-01-28T09:27:13.100Z,-3.2
2017-01-28T09:28:26.106Z,-3.2
2017-01-28T09:29:39.170Z,-3.23
2017-01-28T09:30:51.816Z,-3.11
2017-01-28T09:32:04.455Z,-3.11
2017-01-28T09:33:16.688Z,-3.09
2017-01-28T09:34:29.733Z,-3.05
2017-01-28T09:35:42.378Z,-3.11
2017-01-28T09:36:55.025Z,-3.01
2017-01-28T09:38:08.045Z,-3.02
2017-01-28T09:39:21.042Z,-2.96
2017-01-28T09:40:34.089Z,-2.9
2017-01-28T09:41:47.108Z,-2.93
2017-01-28T09:43:00.153Z,-2.98
2017-01-28T09:44:13.175Z,-2.89
2017-01-28T09:45:26.216Z,-2.81
2017-01-28T09:46:39.239Z,-2.8
2017-01-28T09:47:52.288Z,-2.8
2017-01-28T09:49:05.310Z,-2.81
2017-01-28T09:50:17.951Z,-2.72
2017-01-28T09:51:31.027Z,-2.68
2017-01-28T09:52:44.052Z,-2.66
2017-01-28T09:53:56.716Z,-2.62
2017-01-28T09:55:09.740Z,-2.69
2017-01-28T09:56:22.409Z,-2.7
2017-01-28T09:57:35.455Z,-2.58
2017-01-28T09:58:48.499Z,-2.57
2017-01-28T10:00:01.547Z,-2.65
2017-01-28T10:01:14.192Z,-2.54
2017-01-28T10:02:26.841Z,-2.48
2017-01-28T10:03:39.886Z,-2.47
2017-01-28T10:04:52.925Z,-2.45
2017-01-28T10:06:05.938Z,-2.36
2017-01-28T10:07:18.594Z,-2.37
2017-01-28T10:08:31.642Z,-2.37
2017-01-28T10:09:44.288Z,-2.39
2017-01-28T10:10:57.304Z,-2.23
2017-01-28T10:12:09.918Z,-2.28
2017-01-28T10:13:22.925Z,-2.23
2017-01-28T10:14:35.941Z,-2.2
2017-01-28T10:15:48.988Z,-2.22
2017-01-28T10:17:01.636Z,-2.15
2017-01-28T10:18:13.887Z,-2.13
2017-01-28T10:19:26.931Z,-2.14
2017-01-28T10:20:39.975Z,-2.15
2017-01-28T10:21:53.020Z,-2.13
2017-01-28T10:23:06.053Z,-2.08
2017-01-28T10:24:18.683Z,-2.11
2017-01-28T10:25:31.724Z,-2.08
2017-01-28T10:26:44.755Z,-2.04
2017-01-28T10:27:57.805Z,-2.1
2017-01-28T10:29:10.471Z,-2.1
2017-01-28T10:30:23.131Z,-2
2017-01-28T10:31:36.189Z,-2.02
2017-01-28T10:32:49.232Z,-2
2017-01-28T10:34:02.282Z,-1.97
2017-01-28T10:35:14.921Z,-1.94
2017-01-28T10:36:27.945Z,-1.97
2017-01-28T10:37:40.967Z,-1.82
2017-01-28T10:38:53.857Z,-1.79
2017-01-28T10:40:06.499Z,-1.79
2017-01-28T10:41:19.528Z,-1.74
2017-01-28T10:42:32.548Z,-1.72
2017-01-28T10:43:45.591Z,-1.76
2017-01-28T10:44:58.616Z,-1.69
2017-01-28T10:46:11.657Z,-1.66
2017-01-28T10:47:24.699Z,-1.6
2017-01-28T10:48:37.731Z,-1.64
2017-01-28T10:49:50.363Z,-1.63
2017-01-28T10:51:03.391Z,-1.6
2017-01-28T10:52:16.039Z,-1.63
2017-01-28T10:53:28.685Z,-1.61
2017-01-28T10:54:41.737Z,-1.53
2017-01-28T10:55:54.780Z,-1.4
2017-01-28T10:57:07.797Z,-1.46
2017-01-28T10:58:20.820Z,-1.51
2017-01-28T10:59:33.841Z,-1.45
2017-01-28T11:00:46.857Z,-1.4
2017-01-28T11:01:59.884Z,-1.45
2017-01-28T11:03:12.523Z,-1.45
2017-01-28T11:04:24.772Z,-1.36
2017-01-28T11:05:37.817Z,-1.38
2017-01-28T11:06:50.866Z,-1.39
2017-01-28T11:08:03.909Z,-1.36
2017-01-28T11:09:16.933Z,-1.35
2017-01-28T11:10:29.981Z,-1.24
2017-01-28T11:11:43.019Z,-1.3
2017-01-28T11:12:56.040Z,-1.3
2017-01-28T11:14:08.688Z,-1.3
2017-01-28T11:15:21.315Z,-1.18
2017-01-28T11:16:34.357Z,-1.22
2017-01-28T11:17:47.427Z,-1.18
2017-01-28T11:19:00.465Z,-1.22
2017-01-28T11:20:12.710Z,-1.15
2017-01-28T11:21:25.364Z,-1.21
2017-01-28T11:22:38.006Z,-1.19
2017-01-28T11:23:51.029Z,-1.17
2017-01-28T11:25:04.077Z,-1.18
2017-01-28T11:26:16.319Z,-1.21
2017-01-28T11:27:28.966Z,-1.19
2017-01-28T11:28:41.991Z,-1.19
2017-01-28T11:29:54.659Z,-1.15
2017-01-28T11:31:07.704Z,-1.21
2017-01-28T11:32:20.730Z,-1.15
2017-01-28T11:33:33.768Z,-1.07
2017-01-28T11:34:46.794Z,-1.11
2017-01-28T11:35:59.443Z,-1.09
2017-01-28T11:37:11.706Z,-1.07
2017-01-28T11:38:24.755Z,-1.09
2017-01-28T11:39:37.797Z,-1.01
2017-01-28T11:40:50.444Z,-1.04
2017-01-28T11:42:03.096Z,-0.93
2017-01-28T11:43:16.142Z,-1
2017-01-28T11:44:29.173Z,-1
2017-01-28T11:45:41.804Z,-0.96
2017-01-28T11:46:54.447Z,-0.99
2017-01-28T11:48:07.492Z,-0.97
2017-01-28T11:49:20.493Z,-0.94
2017-01-28T11:50:33.538Z,-0.96
2017-01-28T11:51:46.588Z,-0.85
2017-01-28T11:52:59.227Z,-0.85
2017-01-28T11:54:12.247Z,-0.91
2017-01-28T11:55:24.885Z,-0.93
2017-01-28T11:56:37.932Z,-0.85
2017-01-28T11:57:50.988Z,-0.93
2017-01-28T11:59:04.039Z,-0.8
2017-01-28T12:00:16.706Z,-0.75
2017-01-28T12:01:29.773Z,-0.78
2017-01-28T12:02:42.419Z,-0.84
2017-01-28T12:03:55.439Z,-0.89
2017-01-28T12:05:08.489Z,-0.78
2017-01-28T12:06:21.539Z,-0.87
2017-01-28T12:07:34.583Z,-0.74
2017-01-28T12:08:47.627Z,-0.72
2017-01-28T12:10:00.671Z,-0.77
2017-01-28T12:11:12.941Z,-0.8
2017-01-28T12:12:25.588Z,-0.82
2017-01-28T12:13:38.634Z,-0.75
2017-01-28T12:14:51.702Z,-0.66
2017-01-28T12:16:04.715Z,-0.75
2017-01-28T12:17:16.997Z,-0.7
2017-01-28T12:18:30.038Z,-0.67
2017-01-28T12:19:42.284Z,-0.7
2017-01-28T12:20:55.284Z,-0.67
2017-01-28T12:22:08.303Z,-0.6
2017-01-28T12:23:20.954Z,-0.57
2017-01-28T12:24:33.996Z,-0.56
2017-01-28T12:25:47.039Z,-0.59
2017-01-28T12:27:00.052Z,-0.54
2017-01-28T12:28:13.333Z,-0.54
2017-01-28T12:29:26.355Z,-0.57
2017-01-28T12:30:39.398Z,-0.51
2017-01-28T12:31:52.022Z,-0.48
2017-01-28T12:33:05.068Z,-0.48
2017-01-28T12:34:17.312Z,-0.48
2017-01-28T12:35:30.384Z,-0.54
2017-01-28T12:36:43.402Z,-0.56
2017-01-28T12:37:56.423Z,-0.53
2017-01-28T12:39:09.421Z,-0.49
2017-01-28T12:40:22.432Z,-0.45
2017-01-28T12:41:35.452Z,-0.36
2017-01-28T12:42:48.485Z,-0.44
2017-01-28T12:44:01.532Z,-0.42
2017-01-28T12:45:14.580Z,-0.42
2017-01-28T12:46:27.597Z,-0.31
2017-01-28T12:47:40.245Z,-0.35
2017-01-28T12:48:53.277Z,-0.33
2017-01-28T12:50:05.900Z,-0.41
2017-01-28T12:51:18.553Z,-0.38
2017-01-28T12:52:31.583Z,-0.28
2017-01-28T12:53:44.621Z,-0.31
2017-01-28T12:54:57.633Z,-0.33
2017-01-28T12:56:09.883Z,-0.38
2017-01-28T12:57:22.910Z,-0.35
2017-01-28T12:58:35.929Z,-0.3
2017-01-28T12:59:48.951Z,-0.33
2017-01-28T13:01:02.250Z,-0.31
2017-01-28T13:02:14.898Z,-0.3
2017-01-28T13:03:27.538Z,-0.28
2017-01-28T13:04:40.534Z,-0.41
2017-01-28T13:05:53.563Z,-0.27
2017-01-28T13:07:06.610Z,-0.28
2017-01-28T13:08:19.648Z,-0.33
2017-01-28T13:09:32.669Z,-0.33
2017-01-28T13:10:45.690Z,-0.35
2017-01-28T13:11:58.336Z,-0.23
2017-01-28T13:13:11.358Z,-0.35
2017-01-28T13:14:24.005Z,-0.31
2017-01-28T13:15:36.657Z,-0.33
2017-01-28T13:16:49.699Z,-0.33
2017-01-28T13:18:02.741Z,-0.27
2017-01-28T13:19:14.987Z,-0.18
2017-01-28T13:20:28.032Z,-0.24
2017-01-28T13:21:41.084Z,-0.31
2017-01-28T13:22:54.128Z,-0.28
2017-01-28T13:24:07.200Z,-0.24
2017-01-28T13:25:20.217Z,-0.3
2017-01-28T13:26:33.242Z,-0.24
2017-01-28T13:27:46.283Z,-0.26
2017-01-28T13:28:59.279Z,-0.3
2017-01-28T13:30:12.345Z,-0.31
2017-01-28T13:31:25.000Z,-0.31
2017-01-28T13:32:38.017Z,-0.21
2017-01-28T13:33:50.638Z,-0.23
2017-01-28T13:35:02.914Z,-0.18
2017-01-28T13:36:15.580Z,-0.33
2017-01-28T13:37:28.613Z,-0.27
2017-01-28T13:38:41.723Z,-0.21
2017-01-28T13:39:54.748Z,-0.17
2017-01-28T13:41:07.788Z,-0.13
2017-01-28T13:42:20.413Z,-0.15
2017-01-28T13:43:33.039Z,-0.24
2017-01-28T13:44:46.072Z,-0.18
2017-01-28T13:45:59.153Z,-0.26
2017-01-28T13:47:12.193Z,-0.12
2017-01-28T13:48:25.207Z,-0.17
2017-01-28T13:49:38.240Z,-0.18
2017-01-28T13:50:51.262Z,-0.23
2017-01-28T13:52:04.284Z,-0.21
2017-01-28T13:53:16.563Z,-0.18
2017-01-28T13:54:29.595Z,-0.18
2017-01-28T13:55:42.248Z,-0.21
2017-01-28T13:56:55.287Z,-0.12
2017-01-28T13:58:08.308Z,-0.18
2017-01-28T13:59:21.333Z,-0.2
2017-01-28T14:00:34.376Z,-0.15
2017-01-28T14:01:47.418Z,-0.15
2017-01-28T14:03:00.446Z,-0.15
2017-01-28T14:04:13.090Z,-0.05
2017-01-28T14:05:25.737Z,-0.2
2017-01-28T14:06:38.755Z,-0.09
2017-01-28T14:07:51.443Z,-0.17
2017-01-28T14:09:04.470Z,-0.13
2017-01-28T14:10:17.494Z,-0.18
2017-01-28T14:11:30.138Z,-0.15
2017-01-28T14:12:43.161Z,-0.18
2017-01-28T14:13:56.198Z,-0.05
2017-01-28T14:15:08.829Z,-0.18
2017-01-28T14:16:21.875Z,-0.13
2017-01-28T14:17:34.517Z,-0.17
2017-01-28T14:18:47.158Z,-0.12
2017-01-28T14:20:00.183Z,-0.12
2017-01-28T14:21:12.829Z,-0.2
2017-01-28T14:22:25.733Z,-0.21
2017-01-28T14:23:38.749Z,-0.12
2017-01-28T14:24:51.794Z,-0.17
2017-01-28T14:26:04.823Z,-0.23
2017-01-28T14:27:17.482Z,-0.2
2017-01-28T14:28:30.503Z,-0.23
2017-01-28T14:29:43.524Z,-0.15
2017-01-28T14:30:56.567Z,-0.2
2017-01-28T14:32:09.237Z,-0.18
2017-01-28T14:33:21.880Z,-0.17
2017-01-28T14:34:34.912Z,-0.18
2017-01-28T14:35:47.929Z,-0.15
2017-01-28T14:37:00.552Z,-0.18
2017-01-28T14:38:13.575Z,-0.1
2017-01-28T14:39:26.591Z,-0.27
2017-01-28T14:40:39.588Z,-0.23
2017-01-28T14:41:52.239Z,-0.28
2017-01-28T14:43:05.254Z,-0.24
2017-01-28T14:44:17.917Z,-0.35
2017-01-28T14:45:30.922Z,-0.26
2017-01-28T14:46:43.966Z,-0.27
2017-01-28T14:47:56.995Z,-0.38
2017-01-28T14:49:09.703Z,-0.31
2017-01-28T14:50:22.334Z,-0.3
2017-01-28T14:51:34.979Z,-0.44
2017-01-28T14:52:48.025Z,-0.38
2017-01-28T14:54:01.071Z,-0.33
2017-01-28T14:55:13.736Z,-0.35
2017-01-28T14:56:26.383Z,-0.38
2017-01-28T14:57:39.433Z,-0.39
2017-01-28T14:58:52.475Z,-0.31
2017-01-28T15:00:05.092Z,-0.38
2017-01-28T15:01:17.372Z,-0.42
2017-01-28T15:02:30.417Z,-0.39
2017-01-28T15:03:43.440Z,-0.39
2017-01-28T15:04:56.479Z,-0.41
2017-01-28T15:06:09.507Z,-0.48
2017-01-28T15:07:22.567Z,-0.54
2017-01-28T15:08:35.594Z,-0.56
2017-01-28T15:09:48.613Z,-0.51
2017-01-28T15:11:01.241Z,-0.51
2017-01-28T15:12:14.282Z,-0.62
2017-01-28T15:13:27.307Z,-0.6
2017-01-28T15:14:40.325Z,-0.6
2017-01-28T15:15:53.371Z,-0.67
2017-01-28T15:17:06.389Z,-0.67
2017-01-28T15:18:19.078Z,-0.67
2017-01-28T15:19:32.109Z,-0.74
2017-01-28T15:20:45.150Z,-0.8
2017-01-28T15:21:58.174Z,-0.78
2017-01-28T15:23:10.844Z,-0.84
2017-01-28T15:24:23.866Z,-0.87
2017-01-28T15:25:36.888Z,-0.82
2017-01-28T15:26:49.907Z,-0.81
2017-01-28T15:28:02.953Z,-0.89
2017-01-28T15:29:15.221Z,-0.89
2017-01-28T15:30:28.216Z,-0.89
2017-01-28T15:31:41.241Z,-0.87
2017-01-28T15:32:54.282Z,-0.97
2017-01-28T15:34:07.296Z,-1.09
2017-01-28T15:35:19.923Z,-1.04
2017-01-28T15:36:32.167Z,-1.09
2017-01-28T15:37:45.191Z,-1.09
2017-01-28T15:38:58.065Z,-1.14
2017-01-28T15:40:10.704Z,-1.18
2017-01-28T15:41:23.729Z,-1.17
2017-01-28T15:42:36.777Z,-1.15
2017-01-28T15:43:49.794Z,-1.27